createdAt,value
2022-12-04T00:01:12.817Z,4.06
2022-12-04T00:05:17.310Z,4.06
2022-12-04T00:09:20.318Z,4.07
2022-12-04T00:13:23.312Z,4.10
2022-12-04T00:17:26.253Z,4.11
2022-12-04T00:21:30.664Z,4.11
2022-12-04T00:25:39.307Z,4.09
2022-12-04T00:29:44.034Z,4.10
2022-12-04T00:33:47.184Z,4.09
2022-12-04T00:37:51.542Z,4.12
2022-12-04T00:41:54.517Z,4.12
2022-12-04T00:45:57.605Z,4.14
2022-12-04T00:50:00.868Z,4.13
2022-12-04T00:54:05.504Z,4.14
2022-12-04T00:58:08.682Z,4.16
2022-12-04T01:02:11.630Z,4.18
2022-12-04T01:06:23.284Z,4.19
2022-12-04T01:10:27.661Z,4.18
2022-12-04T01:14:30.753Z,4.17
2022-12-04T01:18:33.795Z,4.16
2022-12-04T01:22:36.776Z,4.17
2022-12-04T01:26:41.199Z,4.16
2022-12-04T01:30:44.175Z,4.21
2022-12-04T01:34:47.378Z,4.26
2022-12-04T01:38:50.531Z,4.28
2022-12-04T01:42:55.165Z,4.30
2022-12-04T01:46:59.377Z,4.27
2022-12-04T01:51:08.389Z,4.24
2022-12-04T01:55:11.367Z,4.23
2022-12-04T01:59:18.619Z,4.23
2022-12-04T02:03:22.068Z,4.24
2022-12-04T02:07:25.270Z,4.25
2022-12-04T02:11:37.504Z,4.29
2022-12-04T02:15:49.416Z,4.29
2022-12-04T02:20:05.509Z,4.28
2022-12-04T02:24:28.961Z,4.29
2022-12-04T02:28:42.669Z,4.27
2022-12-04T02:32:49.657Z,4.28
2022-12-04T02:36:56.710Z,4.27
2022-12-04T02:41:04.949Z,4.29
2022-12-04T02:45:13.088Z,4.30
2022-12-04T02:49:20.415Z,4.27
2022-12-04T02:53:27.536Z,4.25
2022-12-04T02:57:37.030Z,4.22
2022-12-04T03:01:44.981Z,4.17
2022-12-04T03:05:54.735Z,4.16
2022-12-04T03:10:04.127Z,4.16
2022-12-04T03:14:15.525Z,4.14
2022-12-04T03:18:23.685Z,4.10
2022-12-04T03:22:28.703Z,4.09
2022-12-04T03:26:37.613Z,4.07
2022-12-04T03:30:45.527Z,4.04
2022-12-04T03:34:55.597Z,4.03
2022-12-04T03:39:04.592Z,4.02
2022-12-04T03:43:12.907Z,4.01
2022-12-04T03:47:21.621Z,4.03
2022-12-04T03:51:34.379Z,4.09
2022-12-04T03:55:42.625Z,4.09
2022-12-04T03:59:55.411Z,4.10
2022-12-04T04:04:01.726Z,4.12
2022-12-04T04:08:27.887Z,4.14
2022-12-04T04:12:36.662Z,4.12
2022-12-04T04:17:01.696Z,4.13
2022-12-04T04:21:22.543Z,4.14
2022-12-04T04:25:29.623Z,4.12
2022-12-04T04:29:32.877Z,4.13
2022-12-04T04:33:40.884Z,4.20
2022-12-04T04:37:54.864Z,4.19
2022-12-04T04:42:04.379Z,4.16
2022-12-04T04:46:12.498Z,4.14
2022-12-04T04:50:18.110Z,4.17
2022-12-04T04:54:22.166Z,4.16
2022-12-04T04:58:26.577Z,4.15
2022-12-04T05:02:29.986Z,4.11
2022-12-04T05:06:33.101Z,4.10
2022-12-04T05:10:36.101Z,4.09
2022-12-04T05:14:40.470Z,4.09
2022-12-04T05:19:04.390Z,4.08
2022-12-04T05:23:08.309Z,4.03
2022-12-04T05:27:11.397Z,4.01
2022-12-04T05:31:15.848Z,3.98
2022-12-04T05:35:18.971Z,3.98
2022-12-04T05:39:22.472Z,3.95
2022-12-04T05:43:25.475Z,3.94
2022-12-04T05:47:29.862Z,3.91
2022-12-04T05:51:32.824Z,3.92
2022-12-04T05:55:36.174Z,3.85
2022-12-04T05:59:39.368Z,3.84
2022-12-04T06:03:43.998Z,3.81
2022-12-04T06:07:47.178Z,3.80
2022-12-04T06:11:50.379Z,3.77
2022-12-04T06:15:53.472Z,3.74
2022-12-04T06:19:58.285Z,3.70
2022-12-04T06:24:02.133Z,3.69
2022-12-04T06:28:05.163Z,3.65
2022-12-04T06:32:08.262Z,3.66
2022-12-04T06:36:14.441Z,3.61
2022-12-04T06:40:17.484Z,3.61
2022-12-04T06:44:20.518Z,3.56
2022-12-04T06:48:23.605Z,3.54
2022-12-04T06:52:27.980Z,3.51
2022-12-04T06:56:33.595Z,3.49
2022-12-04T07:00:37.039Z,3.46
2022-12-04T07:04:40.269Z,3.44
2022-12-04T07:08:46.154Z,3.45
2022-12-04T07:12:49.117Z,3.45
2022-12-04T07:16:52.136Z,3.46
2022-12-04T07:20:55.176Z,3.44
2022-12-04T07:24:59.535Z,3.43
2022-12-04T07:29:07.662Z,3.46
2022-12-04T07:33:20.118Z,3.51
2022-12-04T07:37:27.800Z,3.54
2022-12-04T07:41:32.079Z,3.56
2022-12-04T07:45:46.574Z,3.51
2022-12-04T07:49:49.627Z,3.52
2022-12-04T07:53:54.067Z,3.49
2022-12-04T07:57:58.418Z,3.48
2022-12-04T08:02:01.461Z,3.45
2022-12-04T08:06:05.880Z,3.44
2022-12-04T08:10:10.085Z,3.39
2022-12-04T08:14:14.904Z,3.40
2022-12-04T08:18:18.025Z,3.37
2022-12-04T08:22:25.064Z,3.38
2022-12-04T08:26:30.536Z,3.39
2022-12-04T08:30:36.041Z,3.39
2022-12-04T08:34:39.081Z,3.34
2022-12-04T08:38:42.545Z,3.33
2022-12-04T08:42:45.507Z,3.34
2022-12-04T08:46:49.967Z,3.30
2022-12-04T08:50:53.379Z,3.28
2022-12-04T08:54:56.362Z,3.28
2022-12-04T08:59:01.239Z,3.33
2022-12-04T09:03:05.788Z,3.34
2022-12-04T09:07:08.764Z,3.37
2022-12-04T09:11:14.713Z,3.37
2022-12-04T09:15:18.420Z,3.38
2022-12-04T09:19:23.064Z,3.37
2022-12-04T09:23:26.830Z,3.38
2022-12-04T09:27:29.856Z,3.33
2022-12-04T09:31:34.038Z,3.29
2022-12-04T09:35:39.677Z,3.24
2022-12-04T09:39:42.669Z,3.25
2022-12-04T09:43:53.413Z,3.26
2022-12-04T09:47:59.521Z,3.23
2022-12-04T09:52:10.669Z,3.20
2022-12-04T09:56:19.913Z,3.23
2022-12-04T10:00:23.547Z,3.21
2022-12-04T10:04:26.821Z,3.19
2022-12-04T10:08:35.961Z,3.20
2022-12-04T10:12:51.450Z,3.17
2022-12-04T10:17:14.634Z,3.18
2022-12-04T10:21:33.858Z,3.15
2022-12-04T10:25:40.142Z,3.15
2022-12-04T10:29:44.801Z,3.17
2022-12-04T10:33:52.007Z,3.20
2022-12-04T10:37:58.755Z,3.19
2022-12-04T10:42:12.505Z,3.20
2022-12-04T10:46:17.815Z,3.22
2022-12-04T10:50:22.972Z,3.20
2022-12-04T10:54:32.737Z,3.24
2022-12-04T10:58:37.151Z,3.23
2022-12-04T11:02:40.832Z,3.24
2022-12-04T11:06:44.161Z,3.22
2022-12-04T11:10:47.201Z,3.21
2022-12-04T11:15:01.155Z,3.19
2022-12-04T11:19:04.622Z,3.19
2022-12-04T11:23:07.670Z,3.19
2022-12-04T11:27:20.866Z,3.19
2022-12-04T11:31:25.674Z,3.23
2022-12-04T11:35:30.965Z,3.24
2022-12-04T11:39:37.994Z,3.26
2022-12-04T11:43:51.404Z,3.26
2022-12-04T11:48:00.438Z,3.28
2022-12-04T11:52:23.580Z,3.29
2022-12-04T11:56:32.736Z,3.22
2022-12-04T12:00:40.635Z,3.22
2022-12-04T12:05:03.980Z,3.23
2022-12-04T12:09:23.662Z,3.20
2022-12-04T12:13:36.618Z,3.19
2022-12-04T12:17:47.198Z,3.18
2022-12-04T12:22:05.165Z,3.19
2022-12-04T12:26:12.284Z,3.21
2022-12-04T12:30:19.173Z,3.20
2022-12-04T12:34:36.235Z,3.22
2022-12-04T12:38:45.448Z,3.22
2022-12-04T12:42:58.202Z,3.26
2022-12-04T12:47:08.113Z,3.30
2022-12-04T12:51:30.034Z,3.33
2022-12-04T12:55:40.360Z,3.33
2022-12-04T12:59:49.354Z,3.33
2022-12-04T13:03:59.808Z,3.32
2022-12-04T13:08:15.947Z,3.34
2022-12-04T13:12:23.711Z,3.39
2022-12-04T13:16:31.196Z,3.40
2022-12-04T13:20:40.343Z,3.41
2022-12-04T13:24:55.341Z,3.40
2022-12-04T13:29:10.091Z,3.38
2022-12-04T13:34:04.463Z,3.39
2022-12-04T13:38:20.822Z,3.45
2022-12-04T13:42:27.052Z,3.47
2022-12-04T13:46:35.853Z,3.50
2022-12-04T13:50:41.557Z,3.50
2022-12-04T13:54:44.975Z,3.54
2022-12-04T13:58:47.961Z,3.56
2022-12-04T14:02:55.633Z,3.56
2022-12-04T14:07:01.639Z,3.59
2022-12-04T14:11:08.250Z,3.62
2022-12-04T14:15:23.319Z,3.61
2022-12-04T14:19:35.646Z,3.61
2022-12-04T14:23:41.303Z,3.62
2022-12-04T14:27:45.557Z,3.66
2022-12-04T14:31:48.531Z,3.66
2022-12-04T14:36:00.732Z,3.66
2022-12-04T14:40:07.305Z,3.69
2022-12-04T14:44:25.368Z,3.74
2022-12-04T14:48:41.842Z,3.76
2022-12-04T14:52:54.193Z,3.74
2022-12-04T14:57:12.901Z,3.72
2022-12-04T15:01:28.656Z,3.72
2022-12-04T15:05:34.249Z,3.71
2022-12-04T15:09:56.292Z,3.69
2022-12-04T15:14:12.714Z,3.68
2022-12-04T15:18:17.928Z,3.62
2022-12-04T15:22:24.815Z,3.57
2022-12-04T15:26:29.579Z,3.52
2022-12-04T15:30:35.598Z,3.50
2022-12-04T15:34:43.049Z,3.47
2022-12-04T15:38:47.968Z,3.47
2022-12-04T15:42:53.114Z,3.49
2022-12-04T15:46:57.782Z,3.53
2022-12-04T15:51:05.058Z,3.50
2022-12-04T15:55:10.131Z,3.49
2022-12-04T15:59:19.145Z,3.47
2022-12-04T16:03:26.575Z,3.44
2022-12-04T16:07:30.906Z,3.44
2022-12-04T16:11:37.443Z,3.43
2022-12-04T16:15:43.956Z,3.46
2022-12-04T16:19:47.259Z,3.66
2022-12-04T16:23:50.969Z,3.68
2022-12-04T16:27:53.949Z,3.62
2022-12-04T16:32:02.893Z,3.57
2022-12-04T16:36:07.288Z,3.57
2022-12-04T16:40:12.008Z,3.57
2022-12-04T16:44:16.809Z,3.52
2022-12-04T16:48:21.466Z,3.50
2022-12-04T16:52:24.524Z,3.58
2022-12-04T16:56:27.517Z,3.60
2022-12-04T17:00:30.620Z,3.59
2022-12-04T17:04:35.076Z,3.63
2022-12-04T17:08:38.134Z,3.64
2022-12-04T17:12:41.414Z,3.61
2022-12-04T17:16:46.698Z,3.55
2022-12-04T17:20:51.132Z,3.52
2022-12-04T17:24:56.217Z,3.56
2022-12-04T17:28:59.486Z,3.56
2022-12-04T17:33:02.696Z,3.58
2022-12-04T17:37:07.077Z,3.59
2022-12-04T17:41:13.685Z,3.56
2022-12-04T17:45:17.096Z,3.58
2022-12-04T17:49:20.378Z,3.59
2022-12-04T17:53:24.815Z,3.59
2022-12-04T17:57:28.767Z,3.61
2022-12-04T18:01:32.486Z,3.60
2022-12-04T18:05:35.752Z,3.65
2022-12-04T18:09:40.394Z,3.68
2022-12-04T18:13:43.751Z,3.71
2022-12-04T18:17:46.796Z,3.69
2022-12-04T18:21:50.178Z,3.66
2022-12-04T18:25:57.423Z,3.64
2022-12-04T18:30:01.578Z,3.67
2022-12-04T18:34:06.501Z,3.69
2022-12-04T18:38:13.767Z,3.71
2022-12-04T18:42:18.247Z,3.70
2022-12-04T18:46:22.401Z,3.69
2022-12-04T18:50:25.443Z,3.68
2022-12-04T18:54:28.496Z,3.70
2022-12-04T18:58:32.915Z,3.69
2022-12-04T19:02:36.107Z,3.66
2022-12-04T19:06:40.820Z,3.68
2022-12-04T19:10:43.878Z,3.69
2022-12-04T19:14:48.267Z,3.70
2022-12-04T19:18:51.371Z,3.68
2022-12-04T19:22:54.931Z,3.65
2022-12-04T19:26:57.925Z,3.62
2022-12-04T19:31:02.257Z,3.62
2022-12-04T19:35:05.779Z,3.63
2022-12-04T19:39:09.705Z,3.62
2022-12-04T19:43:13.944Z,3.62
2022-12-04T19:47:19.360Z,3.63
2022-12-04T19:51:22.919Z,3.62
2022-12-04T19:55:25.905Z,3.63
2022-12-04T19:59:34.613Z,3.63
2022-12-04T20:03:41.646Z,3.62
2022-12-04T20:07:44.658Z,3.62
2022-12-04T20:11:48.029Z,3.59
2022-12-04T20:15:51.337Z,3.56
2022-12-04T20:19:56.380Z,3.51
2022-12-04T20:24:02.216Z,3.51
2022-12-04T20:28:08.990Z,3.51
2022-12-04T20:32:14.398Z,3.43
2022-12-04T20:36:21.298Z,3.46
2022-12-04T20:40:24.623Z,3.44
2022-12-04T20:44:27.821Z,3.41
2022-12-04T20:48:30.729Z,3.41
2022-12-04T20:52:35.241Z,3.44
2022-12-04T20:56:39.459Z,3.46
2022-12-04T21:00:42.559Z,3.47
2022-12-04T21:04:45.675Z,3.46
2022-12-04T21:08:55.802Z,3.44
2022-12-04T21:13:16.729Z,3.43
2022-12-04T21:17:21.193Z,3.43
2022-12-04T21:21:24.377Z,3.43
2022-12-04T21:25:28.687Z,3.42
2022-12-04T21:29:33.174Z,3.40
2022-12-04T21:33:40.948Z,3.41
2022-12-04T21:37:44.355Z,3.43
2022-12-04T21:42:06.655Z,3.45
2022-12-04T21:46:10.323Z,3.50
2022-12-04T21:50:13.294Z,3.52
2022-12-04T21:54:16.194Z,3.57
2022-12-04T21:58:21.399Z,3.56
2022-12-04T22:02:25.690Z,3.57
2022-12-04T22:06:28.853Z,3.58
2022-12-04T22:10:31.787Z,3.62
2022-12-04T22:14:36.257Z,3.63
2022-12-04T22:18:39.841Z,3.61
2022-12-04T22:22:42.810Z,3.62
2022-12-04T22:26:45.745Z,3.63
2022-12-04T22:30:50.132Z,3.62
2022-12-04T22:34:53.093Z,3.62
2022-12-04T22:39:09.510Z,3.64
2022-12-04T22:43:13.288Z,3.69
2022-12-04T22:47:17.637Z,3.66
2022-12-04T22:51:22.182Z,3.69
2022-12-04T22:55:25.435Z,3.71
2022-12-04T22:59:28.586Z,3.69
2022-12-04T23:03:33.009Z,3.71
2022-12-04T23:07:36.858Z,3.71
2022-12-04T23:11:40.915Z,3.69
2022-12-04T23:15:43.902Z,3.71
2022-12-04T23:19:48.389Z,3.66
2022-12-04T23:23:53.830Z,3.68
2022-12-04T23:27:56.714Z,3.66
2022-12-04T23:31:59.698Z,3.68
2022-12-04T23:36:06.219Z,3.69
2022-12-04T23:40:10.148Z,3.66
2022-12-04T23:44:13.055Z,3.69
2022-12-04T23:48:15.950Z,3.70
2022-12-04T23:52:20.402Z,3.69
2022-12-04T23:56:25.045Z,3.68
